SKPE/PEI METAR and TAF weather

Enter ICAO airport designator
Station Type Date Time Source
SKPE METAR 2019/02/21 12:00 UTC NOAA

SKPE 211200Z 07006KT 9999 SCT015 SCT070 20/19 A3004


Station Type Date Time Source
SKPE Decoded METAR 2019/02/21 12:00 UTC NOAA

Pereira / Matecana, Colombia (SKPE) 04-49N 075-44W 1342M
Feb 21, 2019 - 07:00 AM EST / 2019.02.21 1200 UTC
Wind: from the ENE (070 degrees) at 7 MPH (6 KT):0
Visibility: greater than 7 mile(s):0
Sky conditions: partly cloudy
Temperature: 68 F (20 C)
Dew Point: 66 F (19 C)
Relative Humidity: 93%
Pressure (altimeter): 30.04 in. Hg (1017 hPa)
ob: SKPE 211200Z 07006KT 9999 SCT015 SCT070 20/19 A3004
cycle: 12

Station Type Date Time Source
SKPE TAF 2019/02/21 12:45 UTC NOAA

TAF SKPE 211100Z 2112/2212 11004KT 9999 FEW017 SCT090
BECMG 2114/2116 24007KT SCT017
TEMPO 2120/2122 8000 DZ SCT015TCU BKN080
BECMG 2123/2201 10005KT FEW020 SCT090 TX27/2119Z TN18/2211Z


Example: see airport list